Time;durP1;ratioP1;P1;durP2;ratioP2;P2;SDS_P1;SDS_P2;PMS_P1;PMS_P2;Temp;Humidity;BMP_temperature;BMP_pressure;BME280_temperature;BME280_humidity;BME280_pressure;Samples;Min_cycle;Max_cycle;Signal;HPM_P1;HPM_P2
2023/10/02 00:01:48;;;;;;;19.27;10.30;;;18.20;53.20;;;;;;5068944;28;20404;-72
2023/10/02 00:04:18;;;;;;;19.85;10.57;;;18.20;53.30;;;;;;5068830;28;20754;-72
2023/10/02 00:06:44;;;;;;;21.63;11.02;;;18.10;53.30;;;;;;5069188;28;20457;-73
2023/10/02 00:09:09;;;;;;;21.15;11.18;;;18.20;53.50;;;;;;5068793;28;20399;-72
2023/10/02 00:11:41;;;;;;;20.67;10.43;;;18.20;53.30;;;;;;5084283;28;20407;-72
2023/10/02 00:14:25;;;;;;;19.25;10.15;;;18.10;53.50;;;;;;5067181;28;20414;-72
2023/10/02 00:16:59;;;;;;;21.20;11.02;;;18.10;53.50;;;;;;5069027;28;20428;-72
2023/10/02 00:19:39;;;;;;;21.10;11.20;;;18.10;53.80;;;;;;5066218;28;20442;-72
2023/10/02 00:25:07;;;;;;;19.80;10.57;;;18.10;53.60;;;;;;5062001;28;20436;-72
2023/10/02 00:27:34;;;;;;;21.50;10.77;;;18.10;54.00;;;;;;5066310;28;20407;-72
2023/10/02 00:30:00;;;;;;;23.30;11.35;;;18.10;54.10;;;;;;5068725;28;20400;-72
2023/10/02 00:32:29;;;;;;;20.93;11.77;;;18.00;54.10;;;;;;5059363;28;20411;-72
2023/10/02 00:34:58;;;;;;;20.33;11.00;;;18.10;54.30;;;;;;5067994;28;20400;-71
2023/10/02 00:37:45;;;;;;;18.50;10.80;;;18.00;54.30;;;;;;5067047;28;20407;-71
2023/10/02 00:40:22;;;;;;;22.95;11.98;;;18.00;54.10;;;;;;5067869;28;20765;-72
2023/10/02 00:42:59;;;;;;;20.27;10.82;;;18.00;54.60;;;;;;5068457;28;20447;-72
2023/10/02 00:45:29;;;;;;;22.55;11.65;;;18.00;54.80;;;;;;5063778;28;20932;-71
2023/10/02 00:48:24;;;;;;;22.33;11.48;;;18.00;54.90;;;;;;5067892;28;20431;-72
2023/10/02 00:50:54;;;;;;;20.17;11.60;;;18.00;54.90;;;;;;5067616;28;20408;-71
2023/10/02 00:53:37;;;;;;;20.40;10.85;;;18.00;55.20;;;;;;5067553;28;20409;-72
2023/10/02 00:56:19;;;;;;;20.77;11.27;;;18.00;55.30;;;;;;5067963;28;20407;-72
2023/10/02 00:58:58;;;;;;;19.58;11.43;;;18.00;55.50;;;;;;5068025;28;20428;-71
2023/10/02 01:01:34;;;;;;;20.15;11.63;;;18.00;55.40;;;;;;5066392;28;20823;-72
2023/10/02 01:04:09;;;;;;;21.58;12.70;;;17.90;55.40;;;;;;5068184;28;20486;-72
2023/10/02 01:06:54;;;;;;;23.73;12.35;;;17.90;55.30;;;;;;5066993;28;20407;-72
2023/10/02 01:09:25;;;;;;;20.95;11.95;;;18.00;55.50;;;;;;5067401;28;20400;-72
2023/10/02 01:11:52;;;;;;;23.85;12.32;;;17.90;55.80;;;;;;5067732;28;20839;-72
2023/10/02 01:14:40;;;;;;;22.52;12.55;;;17.90;56.10;;;;;;5067872;28;20510;-71
2023/10/02 01:17:07;;;;;;;23.85;12.27;;;17.80;56.40;;;;;;5067314;28;20905;-72
2023/10/02 01:20:21;;;;;;;23.00;12.25;;;17.80;56.60;;;;;;5067839;28;20937;-72
2023/10/02 01:22:26;;;;;;;23.03;12.20;;;17.90;57.50;;;;;;5055091;28;20416;-72
2023/10/02 01:25:16;;;;;;;22.63;12.47;;;17.90;57.00;;;;;;5067887;28;20418;-72
2023/10/02 01:27:50;;;;;;;20.65;12.52;;;17.80;57.10;;;;;;5065344;28;20419;-72
2023/10/02 01:30:20;;;;;;;22.63;12.17;;;17.80;57.00;;;;;;5082541;28;20411;-72
2023/10/02 01:35:46;;;;;;;24.10;12.52;;;17.80;56.60;;;;;;5066950;28;20419;-72
2023/10/02 01:38:15;;;;;;;21.35;12.57;;;17.70;56.40;;;;;;5066287;28;20420;-72
2023/10/02 01:40:49;;;;;;;22.85;13.07;;;17.70;56.50;;;;;;5080237;28;20404;-72
2023/10/02 01:43:16;;;;;;;21.97;12.43;;;17.70;57.10;;;;;;5066206;28;20938;-72
2023/10/02 01:45:43;;;;;;;25.17;12.97;;;17.70;57.50;;;;;;5066496;28;20914;-71
2023/10/02 01:48:13;;;;;;;25.08;13.30;;;17.70;57.60;;;;;;5067398;28;20399;-71
2023/10/02 01:50:45;;;;;;;22.73;13.10;;;17.70;57.60;;;;;;5083114;28;20905;-71
2023/10/02 01:53:30;;;;;;;24.20;13.80;;;17.70;57.60;;;;;;5067065;28;20400;-72
2023/10/02 01:56:11;;;;;;;24.27;13.67;;;17.60;57.50;;;;;;5067259;28;20450;-71
2023/10/02 01:58:40;;;;;;;26.40;13.82;;;17.70;57.60;;;;;;5065866;28;20428;-72
2023/10/02 02:01:09;;;;;;;23.33;13.18;;;17.60;57.60;;;;;;5067161;28;20824;-72
2023/10/02 02:03:46;;;;;;;25.52;14.00;;;17.60;57.30;;;;;;5061279;28;20420;-72
2023/10/02 02:06:16;;;;;;;27.02;14.27;;;17.60;57.30;;;;;;5066743;28;20499;-72
2023/10/02 02:08:47;;;;;;;22.63;13.13;;;17.60;57.30;;;;;;5067024;28;20414;-73
2023/10/02 02:11:23;;;;;;;23.58;13.30;;;17.60;57.50;;;;;;5067537;28;20812;-72
2023/10/02 02:13:52;;;;;;;26.30;14.20;;;17.60;57.40;;;;;;5067616;28;20396;-72
2023/10/02 02:16:33;;;;;;;24.90;13.50;;;17.60;57.50;;;;;;5067071;28;20408;-73
2023/10/02 02:19:06;;;;;;;22.15;13.23;;;17.50;57.50;;;;;;5070758;28;20518;-72
2023/10/02 02:21:33;;;;;;;24.05;13.18;;;17.50;57.30;;;;;;5069355;28;20482;-72
2023/10/02 02:24:08;;;;;;;23.42;13.70;;;17.50;57.30;;;;;;5070923;28;20990;-72
2023/10/02 02:26:37;;;;;;;25.70;13.20;;;17.50;57.30;;;;;;5069555;28;20822;-73
2023/10/02 02:29:03;;;;;;;20.35;13.25;;;17.50;57.10;;;;;;5069393;28;20412;-71
2023/10/02 02:31:30;;;;;;;23.23;12.95;;;17.50;57.30;;;;;;5070497;28;21357;-71
2023/10/02 02:34:14;;;;;;;25.10;14.38;;;17.50;57.60;;;;;;5069691;28;20487;-71
2023/10/02 02:36:42;;;;;;;25.77;13.55;;;17.50;57.40;;;;;;5069441;28;20407;-72
2023/10/02 02:39:15;;;;;;;24.92;14.38;;;17.50;57.60;;;;;;5070204;28;20488;-72
2023/10/02 02:41:58;;;;;;;23.35;13.50;;;17.50;57.50;;;;;;5070357;28;20435;-72
2023/10/02 02:44:43;;;;;;;23.92;14.05;;;17.50;57.30;;;;;;5063734;28;20435;-72
2023/10/02 02:47:09;;;;;;;27.92;14.23;;;17.40;57.10;;;;;;5067734;28;20396;-72
2023/10/02 02:49:49;;;;;;;24.70;13.97;;;17.40;57.40;;;;;;5070173;28;20461;-72
2023/10/02 02:52:24;;;;;;;23.48;13.63;;;17.40;57.80;;;;;;5069148;28;20825;-72
2023/10/02 02:55:05;;;;;;;27.23;14.60;;;17.40;58.00;;;;;;5051494;28;20408;-73
2023/10/02 02:57:32;;;;;;;22.42;13.57;;;17.40;58.30;;;;;;5070400;28;20407;-72
2023/10/02 03:02:46;;;;;;;22.15;13.73;;;17.40;58.50;;;;;;5070694;28;20419;-72
2023/10/02 03:05:22;;;;;;;25.33;14.75;;;17.40;58.40;;;;;;5069586;28;20395;-72
2023/10/02 03:07:54;;;;;;;24.92;14.25;;;17.40;58.20;;;;;;5070312;28;20404;-72
2023/10/02 03:10:20;;;;;;;25.23;14.50;;;17.30;58.40;;;;;;5069475;28;20529;-72
2023/10/02 03:12:48;;;;;;;25.05;13.70;;;17.30;58.80;;;;;;5069601;28;20400;-72
2023/10/02 03:15:45;;;;;;;23.63;13.90;;;17.40;58.80;;;;;;5070102;28;20868;-72
2023/10/02 03:18:22;;;;;;;25.77;14.18;;;17.40;58.80;;;;;;5069004;28;20412;-72
2023/10/02 03:20:52;;;;;;;23.20;13.55;;;17.30;58.60;;;;;;5058836;28;20404;-72
2023/10/02 03:23:18;;;;;;;23.10;14.45;;;17.30;58.20;;;;;;5085198;28;21321;-72
2023/10/02 03:25:47;;;;;;;24.27;14.43;;;17.20;58.00;;;;;;5069208;28;20423;-72
2023/10/02 03:28:27;;;;;;;24.88;14.77;;;17.20;57.70;;;;;;5069868;28;20408;-73
2023/10/02 03:30:57;;;;;;;26.48;14.80;;;17.10;57.50;;;;;;5069132;28;20408;-71
2023/10/02 03:33:25;;;;;;;26.77;14.87;;;17.10;57.60;;;;;;5068106;28;20412;-72
2023/10/02 03:35:58;;;;;;;26.25;15.18;;;17.00;57.80;;;;;;5068937;28;20515;-72
2023/10/02 03:38:33;;;;;;;27.50;15.27;;;17.00;58.00;;;;;;5067695;28;20428;-72
2023/10/02 03:41:05;;;;;;;26.48;14.68;;;16.90;58.20;;;;;;5068908;28;20962;-72
2023/10/02 03:43:49;;;;;;;26.92;15.05;;;16.90;58.80;;;;;;5068606;28;20493;-72
2023/10/02 03:46:35;;;;;;;24.63;15.25;;;16.90;59.60;;;;;;5068824;28;20449;-72
2023/10/02 03:49:05;;;;;;;26.23;14.00;;;16.90;60.10;;;;;;5083916;28;20457;-72
2023/10/02 03:51:36;;;;;;;25.60;14.88;;;16.90;60.40;;;;;;5069044;28;20448;-71
2023/10/02 03:54:20;;;;;;;27.75;14.77;;;16.90;60.60;;;;;;5056392;28;20404;-72
2023/10/02 03:56:49;;;;;;;25.95;14.90;;;16.80;60.90;;;;;;5068475;28;20442;-72
2023/10/02 03:59:25;;;;;;;24.75;14.68;;;16.90;61.40;;;;;;5067462;28;20523;-72
2023/10/02 04:01:51;;;;;;;28.10;14.82;;;16.80;61.60;;;;;;5068312;28;20407;-73
2023/10/02 04:04:21;;;;;;;26.38;14.70;;;16.90;61.70;;;;;;5068876;28;20404;-72
2023/10/02 04:06:50;;;;;;;26.70;15.48;;;16.90;62.50;;;;;;5068504;28;20427;-72
2023/10/02 04:09:23;;;;;;;28.17;15.35;;;16.90;61.80;;;;;;5067872;28;20905;-72
2023/10/02 04:11:50;;;;;;;24.58;14.77;;;16.90;61.70;;;;;;5068368;28;20408;-72
2023/10/02 04:14:31;;;;;;;28.33;15.47;;;16.80;61.70;;;;;;5068205;28;20404;-72
2023/10/02 04:17:46;;;;;;;23.98;14.57;;;16.80;61.80;;;;;;5059214;28;20495;-72
2023/10/02 04:19:49;;;;;;;29.10;15.38;;;16.80;61.90;;;;;;5062307;28;20470;-72
2023/10/02 04:22:28;;;;;;;25.30;15.18;;;16.80;62.10;;;;;;5068050;28;20411;-72
2023/10/02 04:24:58;;;;;;;28.77;15.68;;;16.80;62.30;;;;;;5067223;28;20416;-72
2023/10/02 04:32:34;;;;;;;28.00;16.13;;;16.80;62.90;;;;;;5067888;28;20411;-72
2023/10/02 04:35:02;;;;;;;28.37;16.57;;;16.80;63.10;;;;;;5067902;28;20404;-72
2023/10/02 04:37:31;;;;;;;27.63;15.68;;;16.80;63.40;;;;;;5067792;28;20917;-72
2023/10/02 04:45:20;;;;;;;27.77;15.48;;;16.80;64.00;;;;;;5067291;28;20557;-72
2023/10/02 04:47:48;;;;;;;26.60;15.77;;;16.80;64.30;;;;;;5068046;28;20400;-72
2023/10/02 04:55:28;;;;;;;28.25;16.27;;;16.70;64.60;;;;;;5067286;28;21156;-72
2023/10/02 04:57:56;;;;;;;29.70;16.27;;;16.70;64.70;;;;;;5066374;28;20415;-72
2023/10/02 05:00:35;;;;;;;28.70;16.48;;;16.70;64.70;;;;;;5066816;28;20410;-72
2023/10/02 05:05:48;;;;;;;27.50;15.57;;;16.70;64.40;;;;;;5067034;28;20414;-72
2023/10/02 05:08:19;;;;;;;28.27;16.63;;;16.60;64.30;;;;;;5063665;28;20416;-73
2023/10/02 05:10:56;;;;;;;29.23;17.00;;;16.60;64.80;;;;;;5059227;28;20404;-73
2023/10/02 05:16:11;;;;;;;28.70;16.50;;;16.50;65.20;;;;;;5063239;28;20485;-72
2023/10/02 05:18:44;;;;;;;26.35;16.20;;;16.50;65.40;;;;;;5066902;28;20441;-72
2023/10/02 05:21:16;;;;;;;30.02;16.52;;;16.50;65.70;;;;;;5067015;28;20407;-72
2023/10/02 05:23:49;;;;;;;30.77;17.13;;;16.50;66.00;;;;;;5066487;28;20408;-72
2023/10/02 05:26:32;;;;;;;27.55;16.48;;;16.50;66.20;;;;;;5067054;28;20475;-72
2023/10/02 05:28:58;;;;;;;29.38;16.58;;;16.40;66.60;;;;;;5066658;28;20461;-72
2023/10/02 05:31:24;;;;;;;27.85;15.88;;;16.40;66.80;;;;;;5067485;28;20407;-72
2023/10/02 05:33:51;;;;;;;30.47;16.47;;;16.40;67.00;;;;;;5065749;28;20403;-72
2023/10/02 05:36:19;;;;;;;26.45;15.63;;;16.40;67.20;;;;;;5065998;28;20414;-71
2023/10/02 05:39:16;;;;;;;27.60;16.60;;;16.40;67.40;;;;;;5065853;28;20439;-72
2023/10/02 05:41:44;;;;;;;29.30;17.13;;;16.30;67.60;;;;;;5066941;28;20412;-72
2023/10/02 05:44:23;;;;;;;26.30;15.77;;;16.30;67.80;;;;;;5067141;28;20402;-72
2023/10/02 05:46:55;;;;;;;28.35;16.10;;;16.30;68.30;;;;;;5049218;28;20411;-70
2023/10/02 05:49:24;;;;;;;29.98;17.05;;;16.30;68.50;;;;;;5067287;28;20399;-71
2023/10/02 05:51:55;;;;;;;28.67;16.53;;;16.30;68.70;;;;;;5069271;28;20411;-72
2023/10/02 05:54:29;;;;;;;30.50;16.67;;;16.30;69.00;;;;;;5069707;28;20465;-72
2023/10/02 05:57:09;;;;;;;28.00;16.55;;;16.30;69.10;;;;;;5070744;28;20828;-73
2023/10/02 05:59:54;;;;;;;28.90;16.37;;;16.30;70.00;;;;;;5066228;28;20433;-73
2023/10/02 06:02:22;;;;;;;26.17;16.00;;;16.30;70.70;;;;;;5065292;28;20411;-72
2023/10/02 06:04:52;;;;;;;29.70;16.88;;;16.30;71.10;;;;;;5070780;28;20400;-72
2023/10/02 06:07:43;;;;;;;29.40;16.25;;;16.30;71.20;;;;;;5070812;28;21081;-73
2023/10/02 06:10:24;;;;;;;25.25;15.88;;;16.40;71.70;;;;;;5062052;28;20488;-73
2023/10/02 06:13:06;;;;;;;26.73;16.25;;;16.40;72.10;;;;;;5067246;28;20411;-72
2023/10/02 06:15:48;;;;;;;27.95;16.20;;;16.50;72.40;;;;;;5070265;28;20418;-72
2023/10/02 06:18:27;;;;;;;27.40;15.70;;;16.50;72.40;;;;;;5068770;28;20415;-73
2023/10/02 06:21:03;;;;;;;27.47;15.87;;;16.50;72.50;;;;;;5070421;28;21270;-72
2023/10/02 06:23:37;;;;;;;27.17;15.73;;;16.70;72.50;;;;;;5069805;28;20411;-72
2023/10/02 06:26:04;;;;;;;27.38;16.00;;;16.70;72.30;;;;;;5070657;28;20407;-73
2023/10/02 06:28:30;;;;;;;26.10;15.55;;;16.70;72.30;;;;;;5066880;28;20430;-72
2023/10/02 06:30:56;;;;;;;27.40;15.57;;;16.70;72.10;;;;;;5070118;28;20407;-72
2023/10/02 06:33:22;;;;;;;27.43;16.10;;;16.70;72.10;;;;;;5070305;28;20885;-72
2023/10/02 06:35:57;;;;;;;27.83;16.85;;;16.70;72.10;;;;;;5069837;28;20449;-73
2023/10/02 06:38:23;;;;;;;25.30;16.15;;;16.80;72.00;;;;;;5070009;28;20442;-73
2023/10/02 06:40:56;;;;;;;27.75;16.08;;;16.80;72.00;;;;;;5070092;28;20489;-72
2023/10/02 06:43:29;;;;;;;28.10;16.15;;;16.80;72.00;;;;;;5069303;28;20399;-73
2023/10/02 06:46:09;;;;;;;28.25;15.52;;;16.80;71.90;;;;;;5070197;28;20418;-72
2023/10/02 06:48:43;;;;;;;26.63;15.88;;;16.80;71.80;;;;;;5067673;28;20408;-72
2023/10/02 06:51:13;;;;;;;28.17;16.48;;;16.80;71.70;;;;;;5068887;28;20916;-73
2023/10/02 06:53:43;;;;;;;28.27;16.42;;;16.90;71.40;;;;;;5068890;28;20778;-72
2023/10/02 06:56:13;;;;;;;29.85;16.25;;;16.90;71.30;;;;;;5065293;28;20479;-72
2023/10/02 06:58:52;;;;;;;28.35;15.65;;;16.90;71.40;;;;;;5068726;28;20432;-73
2023/10/02 07:01:18;;;;;;;26.30;16.15;;;16.90;71.50;;;;;;5067886;28;20434;-72
2023/10/02 07:04:29;;;;;;;26.40;15.77;;;16.90;71.50;;;;;;5068537;28;20777;-73
2023/10/02 07:06:34;;;;;;;28.88;16.92;;;17.00;71.40;;;;;;5063322;28;20414;-73
2023/10/02 07:09:12;;;;;;;27.27;16.20;;;17.00;71.40;;;;;;5068577;28;20774;-72
2023/10/02 07:11:39;;;;;;;27.55;15.95;;;17.00;71.20;;;;;;5064352;28;20409;-73
2023/10/02 07:14:06;;;;;;;28.33;16.40;;;17.00;71.30;;;;;;5069147;28;20415;-73
2023/10/02 07:16:32;;;;;;;25.80;15.95;;;17.00;71.30;;;;;;5067453;28;20510;-72
2023/10/02 07:18:59;;;;;;;29.90;16.58;;;17.10;71.20;;;;;;5069327;28;20519;-72
2023/10/02 07:21:27;;;;;;;27.48;15.40;;;17.10;71.20;;;;;;5059096;28;20479;-73
2023/10/02 07:23:54;;;;;;;26.70;15.70;;;17.20;71.30;;;;;;5069018;28;20426;-73
2023/10/02 07:26:20;;;;;;;30.80;16.83;;;17.20;70.90;;;;;;5068688;28;20415;-73
2023/10/02 07:28:53;;;;;;;27.70;16.25;;;17.30;71.30;;;;;;5069811;28;20801;-73
2023/10/02 07:31:23;;;;;;;25.65;15.35;;;17.30;71.20;;;;;;5055320;28;20407;-73
2023/10/02 07:33:49;;;;;;;26.88;16.00;;;17.40;71.10;;;;;;5056459;28;20521;-73
2023/10/02 07:36:15;;;;;;;30.10;16.07;;;17.40;70.80;;;;;;5066688;28;20421;-72
2023/10/02 07:38:46;;;;;;;25.77;15.68;;;17.50;71.10;;;;;;5067918;28;20420;-74
2023/10/02 07:41:23;;;;;;;25.92;16.25;;;17.50;70.60;;;;;;5050651;28;20408;-73
2023/10/02 07:44:07;;;;;;;30.17;15.90;;;17.60;70.50;;;;;;5067423;28;20411;-73
2023/10/02 07:46:33;;;;;;;27.60;15.68;;;17.60;69.90;;;;;;5067302;28;20789;-73
2023/10/02 07:49:00;;;;;;;27.92;15.88;;;17.70;69.40;;;;;;5064490;28;21112;-73
2023/10/02 07:51:32;;;;;;;25.48;15.88;;;17.70;69.10;;;;;;5068544;28;20415;-74
2023/10/02 07:54:01;;;;;;;29.23;16.35;;;17.80;68.20;;;;;;5068837;28;20411;-73
2023/10/02 07:56:29;;;;;;;27.58;15.63;;;17.80;66.80;;;;;;5068804;28;20494;-73
2023/10/02 07:58:55;;;;;;;29.07;16.20;;;17.90;66.60;;;;;;5068440;28;20459;-73
2023/10/02 08:01:27;;;;;;;27.50;16.23;;;17.90;66.90;;;;;;5068051;28;20419;-73
2023/10/02 08:03:55;;;;;;;27.37;15.97;;;18.00;66.40;;;;;;5068349;28;20411;-73
2023/10/02 08:11:50;;;;;;;27.00;16.25;;;18.20;65.00;;;;;;5068451;28;20472;-74
2023/10/02 08:17:22;;;;;;;30.45;17.35;;;18.30;63.20;;;;;;5066426;28;20514;-74
2023/10/02 08:19:55;;;;;;;31.13;17.80;;;18.40;62.40;;;;;;5063754;28;20431;-74
2023/10/02 08:22:24;;;;;;;28.58;17.25;;;18.40;62.40;;;;;;5068641;28;20427;-73
2023/10/02 08:24:55;;;;;;;28.70;16.88;;;18.60;62.10;;;;;;5068551;28;20841;-74
2023/10/02 08:27:21;;;;;;;29.83;17.20;;;18.60;60.70;;;;;;5068328;28;20414;-73
2023/10/02 08:29:47;;;;;;;27.07;17.03;;;18.70;58.60;;;;;;5068612;28;20916;-73
2023/10/02 08:32:12;;;;;;;31.60;18.67;;;18.70;58.40;;;;;;5067638;28;20469;-73
2023/10/02 08:34:38;;;;;;;28.70;17.37;;;18.80;57.70;;;;;;5068678;28;20581;-73
2023/10/02 08:37:12;;;;;;;28.37;16.93;;;18.80;56.40;;;;;;5068022;28;20465;-73
2023/10/02 08:39:39;;;;;;;30.23;17.48;;;18.90;56.40;;;;;;5067551;28;20459;-73
2023/10/02 08:42:09;;;;;;;28.75;17.65;;;18.90;54.30;;;;;;5068102;28;20407;-73
2023/10/02 08:44:38;;;;;;;28.55;16.85;;;19.00;54.60;;;;;;5068450;28;20400;-73
2023/10/02 08:47:12;;;;;;;30.15;17.58;;;19.10;54.80;;;;;;5049847;28;20412;-73
2023/10/02 08:49:41;;;;;;;31.90;17.15;;;19.20;54.20;;;;;;5067868;28;20400;-73
2023/10/02 08:52:10;;;;;;;28.55;17.15;;;19.30;53.40;;;;;;5067382;28;20498;-73
2023/10/02 08:54:39;;;;;;;30.92;17.77;;;19.30;51.90;;;;;;5066935;28;20408;-74
2023/10/02 08:57:06;;;;;;;33.30;17.48;;;19.40;50.60;;;;;;5067430;28;20420;-74
2023/10/02 08:59:38;;;;;;;28.35;17.23;;;19.60;50.60;;;;;;5067777;28;20434;-73
2023/10/02 09:02:15;;;;;;;30.20;17.00;;;19.70;48.50;;;;;;5067010;28;20777;-73
2023/10/02 09:05:09;;;;;;;29.88;17.42;;;19.90;51.40;;;;;;5066571;28;20416;-73
2023/10/02 09:10:28;;;;;;;28.90;17.25;;;20.60;36.80;;;;;;5067464;28;20430;-73
2023/10/02 09:13:17;;;;;;;28.80;16.88;;;20.50;23.50;;;;;;5067139;28;20412;-73
2023/10/02 09:15:48;;;;;;;33.03;18.20;;;20.30;19.20;;;;;;5065142;28;20774;-73
2023/10/02 09:18:34;;;;;;;31.58;17.27;;;20.20;21.30;;;;;;5067515;28;20763;-73
2023/10/02 09:21:13;;;;;;;31.92;16.55;;;20.20;27.20;;;;;;5066275;28;20419;-73
2023/10/02 09:23:52;;;;;;;29.00;16.83;;;20.20;27.40;;;;;;5049099;28;20929;-73
2023/10/02 09:26:26;;;;;;;30.08;17.20;;;20.20;26.50;;;;;;5067327;28;20403;-73
2023/10/02 09:29:00;;;;;;;29.38;17.40;;;20.20;33.70;;;;;;5067714;28;20403;-73
2023/10/02 09:31:30;;;;;;;26.92;15.93;;;20.60;42.70;;;;;;5049515;28;20426;-73
2023/10/02 09:33:56;;;;;;;25.33;15.77;;;21.20;40.30;;;;;;5066834;28;20916;-73
2023/10/02 09:36:36;;;;;;;26.77;15.60;;;21.60;24.30;;;;;;5065770;28;20460;-73
2023/10/02 09:42:08;;;;;;;26.08;15.25;;;22.30;7.30;;;;;;5066542;28;20457;-73
2023/10/02 09:44:47;;;;;;;24.48;15.35;;;22.70;1.00;;;;;;5068098;28;20411;-73
2023/10/02 09:47:20;;;;;;;27.00;14.75;;;22.70;1.00;;;;;;5065283;28;20411;-73
2023/10/02 09:50:10;;;;;;;28.05;16.75;;;22.60;1.00;;;;;;5066770;28;20452;-74
2023/10/02 09:52:57;;;;;;;26.10;15.48;;;22.40;1.00;;;;;;5066906;28;20774;-74
2023/10/02 09:55:37;;;;;;;27.55;15.25;;;22.50;1.00;;;;;;5063447;28;20437;-74
2023/10/02 09:58:06;;;;;;;29.02;15.38;;;23.10;1.00;;;;;;5065747;28;20510;-74
2023/10/02 10:00:34;;;;;;;24.92;15.85;;;23.50;1.00;;;;;;5066903;28;20866;-74
2023/10/02 10:03:22;;;;;;;27.15;15.60;;;23.60;1.00;;;;;;5065796;28;20957;-71
2023/10/02 10:06:06;;;;;;;25.73;15.30;;;23.70;1.00;;;;;;5082811;28;20816;-71
2023/10/02 10:11:43;;;;;;;25.08;14.70;;;24.30;1.00;;;;;;5031497;28;20424;-75
2023/10/02 10:14:44;;;;;;;27.63;14.57;;;24.50;1.00;;;;;;5066826;28;20470;-73
2023/10/02 10:17:18;;;;;;;26.30;15.13;;;24.40;1.00;;;;;;5026779;28;20433;-73
2023/10/02 10:20:18;;;;;;;25.77;15.57;;;24.00;1.00;;;;;;5065684;28;20909;-72
2023/10/02 10:23:05;;;;;;;25.50;16.13;;;23.60;1.00;;;;;;5055733;28;20471;-72
2023/10/02 10:25:34;;;;;;;25.02;15.40;;;23.40;1.00;;;;;;5064557;28;20495;-73
2023/10/02 10:28:04;;;;;;;25.75;14.63;;;23.30;1.00;;;;;;5065349;28;20536;-73
2023/10/02 10:30:33;;;;;;;25.52;15.63;;;23.60;1.00;;;;;;5065677;28;20868;-73
2023/10/02 10:35:57;;;;;;;22.55;14.57;;;25.00;1.00;;;;;;5054639;28;20477;-73
2023/10/02 10:38:26;;;;;;;25.80;15.60;;;25.90;1.00;;;;;;5059972;28;20570;-73
2023/10/02 10:41:27;;;;;;;25.05;15.05;;;26.00;99.90;;;;;;5068700;28;20412;-73
2023/10/02 10:43:56;;;;;;;24.85;14.95;;;25.90;99.90;;;;;;5050370;28;20407;-73
2023/10/02 10:46:27;;;;;;;25.27;15.00;;;25.60;99.90;;;;;;5068243;28;20412;-73
2023/10/02 10:49:03;;;;;;;25.05;14.25;;;25.60;99.90;;;;;;5067943;28;20451;-73
2023/10/02 10:51:33;;;;;;;24.50;14.30;;;26.00;99.90;;;;;;5065110;28;20925;-73
2023/10/02 10:54:30;;;;;;;25.67;14.43;;;26.50;99.90;;;;;;5061171;28;20407;-73
2023/10/02 10:57:21;;;;;;;24.95;14.35;;;26.90;99.90;;;;;;5064294;28;20446;-73
2023/10/02 11:00:25;;;;;;;21.42;12.90;;;27.30;99.90;;;;;;5061105;28;21047;-73
2023/10/02 11:03:00;;;;;;;23.47;13.90;;;27.60;99.90;;;;;;5070393;28;20439;-74
2023/10/02 11:05:27;;;;;;;21.73;13.23;;;27.80;48.40;;;;;;5070187;28;21001;-73
2023/10/02 11:07:55;;;;;;;21.70;12.68;;;27.90;1.00;;;;;;5069786;28;20506;-73
2023/10/02 11:10:25;;;;;;;23.88;13.27;;;27.70;1.00;;;;;;5069764;28;20937;-73
2023/10/02 11:12:57;;;;;;;23.05;13.63;;;27.30;1.00;;;;;;5070320;28;20805;-73
2023/10/02 11:18:23;;;;;;;24.15;13.00;;;26.50;1.00;;;;;;5069632;28;20430;-73
2023/10/02 11:20:50;;;;;;;23.40;13.15;;;26.20;1.00;;;;;;5070112;28;20404;-73
2023/10/02 11:23:44;;;;;;;23.90;13.68;;;25.90;1.00;;;;;;5069760;28;20412;-73
2023/10/02 11:26:21;;;;;;;22.58;13.43;;;25.80;99.90;;;;;;5064626;28;20411;-73
2023/10/02 11:28:50;;;;;;;23.83;13.13;;;25.80;63.90;;;;;;5052042;28;20910;-73
2023/10/02 11:31:45;;;;;;;24.50;13.63;;;25.50;94.50;;;;;;5069303;28;20406;-73
2023/10/02 11:34:11;;;;;;;22.47;13.07;;;25.30;99.90;;;;;;5064464;28;20494;-72
2023/10/02 11:36:46;;;;;;;23.05;13.15;;;25.00;99.90;;;;;;5065468;28;20496;-73
2023/10/02 11:39:19;;;;;;;23.50;13.77;;;24.80;99.90;;;;;;5069451;28;21325;-73
2023/10/02 11:41:46;;;;;;;24.83;13.43;;;24.80;99.90;;;;;;5068541;28;20773;-73
2023/10/02 11:44:15;;;;;;;25.00;13.90;;;24.90;99.90;;;;;;5069286;28;20411;-73
2023/10/02 11:46:41;;;;;;;24.17;13.07;;;25.10;99.90;;;;;;5069144;28;20944;-73
2023/10/02 11:49:13;;;;;;;21.85;13.65;;;25.20;99.90;;;;;;5069140;28;20411;-73
2023/10/02 11:51:39;;;;;;;21.30;13.13;;;25.30;99.90;;;;;;5069652;28;20498;-73
2023/10/02 11:54:11;;;;;;;23.40;13.43;;;25.50;99.90;;;;;;5069184;28;20411;-73
2023/10/02 11:56:38;;;;;;;23.65;13.23;;;25.70;99.90;;;;;;5069030;28;21008;-73
2023/10/02 11:59:06;;;;;;;23.00;13.48;;;26.00;99.90;;;;;;5069355;28;20442;-73
2023/10/02 12:01:32;;;;;;;21.58;13.65;;;26.10;99.90;;;;;;5068996;28;20408;-73
2023/10/02 12:03:57;;;;;;;25.13;14.30;;;26.10;75.50;;;;;;5069014;28;20502;-73
2023/10/02 12:06:27;;;;;;;23.65;13.65;;;26.00;79.30;;;;;;5068703;28;20979;-73
2023/10/02 12:08:56;;;;;;;25.30;14.52;;;26.10;99.90;;;;;;5068846;28;20412;-73
2023/10/02 12:11:24;;;;;;;22.13;13.23;;;26.30;99.90;;;;;;5065079;28;20497;-73
2023/10/02 12:13:51;;;;;;;22.17;13.65;;;26.40;22.90;;;;;;5069021;28;20431;-73
2023/10/02 12:16:17;;;;;;;24.80;13.73;;;26.40;1.00;;;;;;5067181;28;20422;-73
2023/10/02 12:18:43;;;;;;;25.05;14.35;;;26.30;1.00;;;;;;5068524;28;20546;-74
2023/10/02 12:21:11;;;;;;;21.80;13.75;;;26.10;1.00;;;;;;5068554;28;20491;-73
2023/10/02 12:23:40;;;;;;;24.45;14.13;;;26.00;1.00;;;;;;5068902;28;20948;-73
2023/10/02 12:26:28;;;;;;;25.15;14.40;;;25.80;1.00;;;;;;5063798;28;20404;-74
2023/10/02 12:28:54;;;;;;;23.52;13.45;;;25.80;1.00;;;;;;5067708;28;20410;-73
2023/10/02 12:31:19;;;;;;;24.65;14.50;;;25.80;1.00;;;;;;5068397;28;20808;-73
2023/10/02 12:33:47;;;;;;;24.80;14.77;;;25.90;1.00;;;;;;5068960;28;20404;-73
2023/10/02 12:36:17;;;;;;;25.23;14.87;;;25.80;1.00;;;;;;5067668;28;20443;-73
2023/10/02 12:38:46;;;;;;;23.83;14.98;;;25.70;1.00;;;;;;5068394;28;20424;-73
2023/10/02 12:41:17;;;;;;;27.55;15.65;;;25.50;1.00;;;;;;5067731;28;20839;-73
2023/10/02 12:43:44;;;;;;;25.50;14.90;;;25.50;1.00;;;;;;5068401;28;20821;-73
2023/10/02 12:46:15;;;;;;;25.83;14.70;;;25.50;1.00;;;;;;5082402;28;20412;-73
2023/10/02 12:48:48;;;;;;;25.45;15.50;;;25.50;1.00;;;;;;5068408;28;20453;-73
2023/10/02 12:51:15;;;;;;;24.58;15.10;;;25.50;1.00;;;;;;5067368;28;20451;-73
2023/10/02 12:53:42;;;;;;;24.70;14.60;;;25.50;1.00;;;;;;5068372;28;20435;-73
2023/10/02 12:56:09;;;;;;;25.70;15.47;;;25.60;1.00;;;;;;5068339;28;20490;-73
2023/10/02 12:58:35;;;;;;;23.90;14.43;;;25.70;1.00;;;;;;5067905;28;20484;-73
2023/10/02 13:01:01;;;;;;;23.10;14.55;;;25.80;1.00;;;;;;5067991;28;20423;-73
2023/10/02 13:03:31;;;;;;;23.73;14.95;;;26.00;1.00;;;;;;5067856;28;20413;-73
2023/10/02 13:06:03;;;;;;;24.90;15.63;;;26.10;1.00;;;;;;5068365;28;20441;-73
2023/10/02 13:08:29;;;;;;;26.98;15.85;;;26.20;1.00;;;;;;5067959;28;20913;-73
2023/10/02 13:10:55;;;;;;;27.90;16.02;;;26.10;1.00;;;;;;5068237;28;20408;-75
2023/10/02 13:13:21;;;;;;;23.10;15.73;;;26.00;1.00;;;;;;5067572;28;20446;-73
2023/10/02 13:15:51;;;;;;;23.35;15.05;;;26.10;99.90;;;;;;5068158;28;20425;-73
2023/10/02 13:18:17;;;;;;;25.58;15.70;;;25.90;99.90;;;;;;5066094;28;20494;-75
2023/10/02 13:20:45;;;;;;;26.35;15.82;;;25.80;99.90;;;;;;5067480;28;20504;-73
2023/10/02 13:23:13;;;;;;;26.43;16.33;;;25.70;99.90;;;;;;5066501;28;20443;-73
2023/10/02 13:25:42;;;;;;;26.67;15.85;;;25.70;99.90;;;;;;5065219;28;20412;-74
2023/10/02 13:28:11;;;;;;;25.60;16.67;;;25.50;1.00;;;;;;5063740;28;20497;-73
2023/10/02 13:30:41;;;;;;;24.15;16.02;;;25.40;1.00;;;;;;5065236;28;20418;-72
2023/10/02 13:33:07;;;;;;;28.20;16.75;;;25.20;1.00;;;;;;5065327;28;20507;-73
2023/10/02 13:35:38;;;;;;;27.75;16.05;;;25.00;99.90;;;;;;5059741;28;20399;-74
2023/10/02 13:38:04;;;;;;;25.70;16.40;;;24.80;1.00;;;;;;5073267;28;20413;-74
2023/10/02 13:40:33;;;;;;;24.40;16.50;;;24.80;1.00;;;;;;5056779;28;20429;-74
2023/10/02 13:42:59;;;;;;;25.25;15.95;;;24.70;1.00;;;;;;5065377;28;20396;-74
2023/10/02 13:45:26;;;;;;;22.40;15.40;;;24.70;1.00;;;;;;5062082;28;20909;-72
2023/10/02 13:47:53;;;;;;;25.25;16.63;;;24.70;1.00;;;;;;5067540;28;20921;-72
2023/10/02 13:50:22;;;;;;;25.40;16.27;;;24.50;1.00;;;;;;5062198;28;20497;-72